Time;durP1;ratioP1;P1;durP2;ratioP2;P2;SDS_P1;SDS_P2;PMS_P1;PMS_P2;Temp;Humidity;BMP_temperature;BMP_pressure;BME280_temperature;BME280_humidity;BME280_pressure;Samples;Min_cycle;Max_cycle;Signal;HPM_P1;HPM_P2
2023/08/25 00:00:09;;;;;;;;;;;;;;;;;;2215588;59;2044;-79
2023/08/25 00:02:52;;;;;;;;;;;;;;;;;;2217422;59;2019;-80
2023/08/25 00:05:25;;;;;;;;;;;;;;;;;;2216106;66;1650;-78
2023/08/25 00:07:58;;;;;;;;;;;;;;;;;;2212326;67;1985;-79
2023/08/25 00:10:28;;;;;;;;;;;;;;;;;;2212054;67;1793;-79
2023/08/25 00:13:02;;;;;;;;;;;;;;;;;;2215259;59;3217;-79
2023/08/25 00:15:45;;;;;;;;;;;;;;;;;;2216002;59;2241;-79
2023/08/25 00:18:20;;;;;;;;;;;;;;;;;;2216117;58;2427;-79
2023/08/25 00:21:08;;;;;;;;;;;;;;;;;;2212840;67;1489;-79
2023/08/25 00:23:42;;;;;;;;;;;;;;;;;;2215987;66;1242;-79
2023/08/25 00:26:12;;;;;;;;;;;;;;;;;;2215091;66;1937;-78
2023/08/25 00:28:45;;;;;;;;;;;;;;;;;;2215517;66;1266;-78
2023/08/25 00:31:22;;;;;;;;;;;;;;;;;;2215986;59;1898;-80
2023/08/25 00:34:05;;;;;;;;;;;;;;;;;;2217754;59;1579;-79
2023/08/25 00:36:38;;;;;;;;;;;;;;;;;;2220172;59;1853;-78
2023/08/25 00:39:08;;;;;;;;;;;;;;;;;;2219385;66;1689;-79
2023/08/25 00:41:39;;;;;;;;;;;;;;;;;;2219516;67;1658;-78
2023/08/25 00:44:12;;;;;;;;;;;;;;;;;;2217832;59;1715;-79
2023/08/25 00:46:48;;;;;;;;;;;;;;;;;;2218278;59;1924;-79
2023/08/25 00:49:19;;;;;;;;;;;;;;;;;;2217525;59;1532;-80
2023/08/25 00:51:50;;;;;;;;;;;;;;;;;;2211834;59;1329;-78
2023/08/25 00:54:21;;;;;;;;;;;;;;;;;;2215524;59;1589;-79
2023/08/25 00:56:52;;;;;;;;;;;;;;;;;;2214879;67;1228;-80
2023/08/25 00:59:22;;;;;;;;;;;;;;;;;;2215130;66;1263;-78
2023/08/25 01:01:54;;;;;;;;;;;;;;;;;;2215038;66;1707;-77
2023/08/25 01:04:27;;;;;;;;;;;;;;;;;;2214886;59;1613;-78
2023/08/25 01:06:58;;;;;;;;;;;;;;;;;;2216466;67;2447;-78
2023/08/25 01:09:28;;;;;;;;;;;;;;;;;;2213665;66;1559;-81
2023/08/25 01:12:11;;;;;;;;;;;;;;;;;;2216937;66;1537;-79
2023/08/25 01:15:32;;;;;;;;;;;;;;;;;;2216909;58;2820;-79
2023/08/25 01:18:07;;;;;;;;;;;;;;;;;;2220662;53;2065;-20
2023/08/25 01:20:41;;;;;;;;;;;;;;;;;;2213648;66;2937;-19
2023/08/25 01:23:17;;;;;;;;;;;;;;;;;;2220419;66;2277;-19
2023/08/25 01:25:56;;;;;;;;;;;;;;;;;;2217235;63;2006;-19
2023/08/25 01:28:28;;;;;;;;;;;;;;;;;;2219725;66;1972;-18
2023/08/25 01:30:59;;;;;;;;;;;;;;;;;;2217086;58;1911;-19
2023/08/25 01:33:32;;;;;;;;;;;;;;;;;;2217278;58;1769;-18
2023/08/25 01:36:12;;;;;;;;;;;;;;;;;;2216929;66;2588;-19
2023/08/25 01:38:54;;;;;;;;;;;;;;;;;;2213423;66;2240;-18
2023/08/25 01:41:31;;;;;;;;;;;;;;;;;;2219674;66;1811;-18
2023/08/25 01:44:03;;;;;;;;;;;;;;;;;;2215865;61;1594;-19
2023/08/25 01:46:34;;;;;;;;;;;;;;;;;;2219633;58;2582;-19
2023/08/25 01:49:06;;;;;;;;;;;;;;;;;;2220009;66;2291;-20
2023/08/25 01:51:37;;;;;;;;;;;;;;;;;;2219984;58;2379;-19
2023/08/25 01:54:07;;;;;;;;;;;;;;;;;;2219771;58;2134;-19
2023/08/25 01:56:38;;;;;;;;;;;;;;;;;;2219643;58;2523;-19
2023/08/25 01:59:08;;;;;;;;;;;;;;;;;;2220103;66;1277;-19
2023/08/25 02:01:38;;;;;;;;;;;;;;;;;;2213101;59;2940;-19
2023/08/25 02:04:09;;;;;;;;;;;;;;;;;;2219142;66;1724;-18
2023/08/25 02:06:39;;;;;;;;;;;;;;;;;;2220157;66;2023;-18
2023/08/25 02:09:10;;;;;;;;;;;;;;;;;;2219392;66;2876;-17
2023/08/25 02:11:41;;;;;;;;;;;;;;;;;;2219419;58;1751;-18
2023/08/25 02:14:11;;;;;;;;;;;;;;;;;;2219422;63;2447;-18
2023/08/25 02:16:41;;;;;;;;;;;;;;;;;;2218761;59;2359;-18
2023/08/25 02:19:12;;;;;;;;;;;;;;;;;;2216239;66;2761;-18
2023/08/25 02:21:42;;;;;;;;;;;;;;;;;;2219288;66;1833;-17
2023/08/25 02:24:13;;;;;;;;;;;;;;;;;;2216679;59;2847;-18
2023/08/25 02:26:43;;;;;;;;;;;;;;;;;;2219188;58;1987;-18
2023/08/25 02:29:13;;;;;;;;;;;;;;;;;;2215907;66;2406;-18
2023/08/25 02:31:43;;;;;;;;;;;;;;;;;;2216724;58;2133;-18
2023/08/25 02:34:14;;;;;;;;;;;;;;;;;;2219290;58;1896;-19
2023/08/25 02:36:44;;;;;;;;;;;;;;;;;;2219228;66;1623;-18
2023/08/25 02:39:14;;;;;;;;;;;;;;;;;;2218507;66;1484;-18
2023/08/25 02:41:44;;;;;;;;;;;;;;;;;;2219879;66;1909;-19
2023/08/25 02:44:15;;;;;;;;;;;;;;;;;;2218303;66;1826;-18
2023/08/25 02:46:46;;;;;;;;;;;;;;;;;;2215244;58;1999;-18
2023/08/25 02:49:16;;;;;;;;;;;;;;;;;;2216402;66;1931;-19
2023/08/25 02:51:46;;;;;;;;;;;;;;;;;;2219292;58;1806;-19
2023/08/25 02:54:16;;;;;;;;;;;;;;;;;;2216323;58;1468;-18
2023/08/25 02:56:47;;;;;;;;;;;;;;;;;;2215972;58;1918;-18
2023/08/25 02:59:17;;;;;;;;;;;;;;;;;;2215948;66;1935;-18
2023/08/25 03:01:47;;;;;;;;;;;;;;;;;;2216678;58;1800;-18
2023/08/25 03:04:18;;;;;;;;;;;;;;;;;;2215242;66;2878;-19
2023/08/25 03:06:49;;;;;;;;;;;;;;;;;;2219025;66;1953;-22
2023/08/25 03:09:22;;;;;;;;;;;;;;;;;;2212786;66;1643;-22
2023/08/25 03:11:53;;;;;;;;;;;;;;;;;;2219090;58;1341;-22
2023/08/25 03:14:26;;;;;;;;;;;;;;;;;;2217640;58;1590;-22
2023/08/25 03:16:56;;;;;;;;;;;;;;;;;;2214242;58;3231;-21
2023/08/25 03:19:27;;;;;;;;;;;;;;;;;;2215493;66;2764;-21
2023/08/25 03:21:57;;;;;;;;;;;;;;;;;;2219222;59;2145;-22
2023/08/25 03:24:27;;;;;;;;;;;;;;;;;;2218747;66;1776;-21
2023/08/25 03:26:57;;;;;;;;;;;;;;;;;;2215024;58;1991;-21
2023/08/25 03:29:28;;;;;;;;;;;;;;;;;;2218350;66;1616;-19
2023/08/25 03:31:58;;;;;;;;;;;;;;;;;;2218696;58;2901;-19
2023/08/25 03:34:29;;;;;;;;;;;;;;;;;;2219358;66;1748;-18
2023/08/25 03:36:59;;;;;;;;;;;;;;;;;;2215082;66;2075;-19
2023/08/25 03:39:30;;;;;;;;;;;;;;;;;;2219155;59;1627;-18
2023/08/25 03:42:00;;;;;;;;;;;;;;;;;;2215770;66;1298;-19
2023/08/25 03:44:30;;;;;;;;;;;;;;;;;;2215446;58;2038;-18
2023/08/25 03:47:04;;;;;;;;;;;;;;;;;;2214939;59;1992;-20
2023/08/25 03:49:34;;;;;;;;;;;;;;;;;;2216415;58;1716;-20
2023/08/25 03:52:05;;;;;;;;;;;;;;;;;;2219350;58;1856;-20
2023/08/25 03:54:35;;;;;;;;;;;;;;;;;;2218680;66;1432;-19
2023/08/25 03:57:08;;;;;;;;;;;;;;;;;;2218202;58;1520;-19
2023/08/25 03:59:38;;;;;;;;;;;;;;;;;;2215460;66;1518;-18
2023/08/25 04:02:09;;;;;;;;;;;;;;;;;;2218154;58;2066;-18
2023/08/25 04:04:39;;;;;;;;;;;;;;;;;;2219148;66;1315;-18
2023/08/25 04:07:09;;;;;;;;;;;;;;;;;;2218027;66;1982;-18
2023/08/25 04:09:40;;;;;;;;;;;;;;;;;;2212835;66;1733;-18
2023/08/25 04:12:11;;;;;;;;;;;;;;;;;;2215302;58;1375;-18
2023/08/25 04:14:42;;;;;;;;;;;;;;;;;;2218637;66;1652;-18
2023/08/25 04:17:12;;;;;;;;;;;;;;;;;;2217390;58;2373;-20
2023/08/25 04:19:42;;;;;;;;;;;;;;;;;;2218505;59;2183;-19
2023/08/25 04:22:12;;;;;;;;;;;;;;;;;;2212637;66;1486;-20
2023/08/25 04:24:43;;;;;;;;;;;;;;;;;;2215675;66;1130;-20
2023/08/25 04:27:13;;;;;;;;;;;;;;;;;;2215292;58;1937;-19
2023/08/25 04:29:44;;;;;;;;;;;;;;;;;;2218973;66;1736;-19
2023/08/25 04:32:15;;;;;;;;;;;;;;;;;;2218951;58;2006;-19
2023/08/25 04:34:45;;;;;;;;;;;;;;;;;;2214710;66;1855;-18
2023/08/25 04:37:16;;;;;;;;;;;;;;;;;;2218720;66;1339;-19
2023/08/25 04:39:46;;;;;;;;;;;;;;;;;;2219106;59;1702;-19
2023/08/25 04:42:16;;;;;;;;;;;;;;;;;;2219017;66;1730;-19
2023/08/25 04:44:47;;;;;;;;;;;;;;;;;;2215469;58;2089;-18
2023/08/25 04:47:17;;;;;;;;;;;;;;;;;;2218306;66;1927;-18
2023/08/25 04:49:48;;;;;;;;;;;;;;;;;;2215585;58;1349;-18
2023/08/25 04:52:18;;;;;;;;;;;;;;;;;;2212844;58;1751;-19
2023/08/25 04:54:49;;;;;;;;;;;;;;;;;;2218809;66;1640;-18
2023/08/25 04:57:19;;;;;;;;;;;;;;;;;;2218515;58;2076;-18
2023/08/25 04:59:49;;;;;;;;;;;;;;;;;;2215242;58;2150;-18
2023/08/25 05:02:19;;;;;;;;;;;;;;;;;;2218675;66;2153;-18
2023/08/25 05:04:50;;;;;;;;;;;;;;;;;;2219277;66;2163;-18
2023/08/25 05:07:20;;;;;;;;;;;;;;;;;;2217944;66;1984;-18
2023/08/25 05:09:53;;;;;;;;;;;;;;;;;;2217914;66;1656;-18
2023/08/25 05:12:24;;;;;;;;;;;;;;;;;;2215866;58;1461;-18
2023/08/25 05:14:54;;;;;;;;;;;;;;;;;;2215665;66;1753;-17
2023/08/25 05:17:24;;;;;;;;;;;;;;;;;;2218085;58;2288;-18
2023/08/25 05:19:55;;;;;;;;;;;;;;;;;;2217377;59;2239;-17
2023/08/25 05:22:25;;;;;;;;;;;;;;;;;;2218130;66;2053;-17
2023/08/25 05:24:55;;;;;;;;;;;;;;;;;;2214567;66;2296;-17
2023/08/25 05:27:25;;;;;;;;;;;;;;;;;;2218241;58;2312;-18
2023/08/25 05:29:56;;;;;;;;;;;;;;;;;;2217365;66;1664;-18
2023/08/25 05:32:26;;;;;;;;;;;;;;;;;;2219277;58;1521;-18
2023/08/25 05:34:57;;;;;;;;;;;;;;;;;;2218410;66;2065;-18
2023/08/25 05:37:27;;;;;;;;;;;;;;;;;;2218183;66;1758;-17
2023/08/25 05:39:58;;;;;;;;;;;;;;;;;;2214671;59;2077;-17
2023/08/25 05:42:28;;;;;;;;;;;;;;;;;;2215359;66;2382;-18
2023/08/25 05:44:59;;;;;;;;;;;;;;;;;;2218779;58;1976;-18
2023/08/25 05:47:29;;;;;;;;;;;;;;;;;;2219055;66;1931;-17
2023/08/25 05:50:00;;;;;;;;;;;;;;;;;;2215343;58;1827;-18
2023/08/25 05:52:30;;;;;;;;;;;;;;;;;;2218687;58;1512;-18
2023/08/25 05:55:00;;;;;;;;;;;;;;;;;;2215102;66;2015;-17
2023/08/25 05:57:30;;;;;;;;;;;;;;;;;;2219190;58;2873;-17
2023/08/25 06:00:01;;;;;;;;;;;;;;;;;;2219136;58;2407;-18
2023/08/25 06:02:32;;;;;;;;;;;;;;;;;;2216598;66;1537;-17
2023/08/25 06:05:03;;;;;;;;;;;;;;;;;;2219429;66;1902;-17
2023/08/25 06:07:33;;;;;;;;;;;;;;;;;;2215060;66;3216;-17
2023/08/25 06:10:07;;;;;;;;;;;;;;;;;;2218907;66;1959;-17
2023/08/25 06:12:38;;;;;;;;;;;;;;;;;;2216684;58;2401;-18
2023/08/25 06:15:09;;;;;;;;;;;;;;;;;;2219133;66;2272;-17
2023/08/25 06:17:39;;;;;;;;;;;;;;;;;;2218672;58;2140;-17
2023/08/25 06:20:11;;;;;;;;;;;;;;;;;;2216982;59;2207;-17
2023/08/25 06:22:42;;;;;;;;;;;;;;;;;;2216232;66;1793;-21
2023/08/25 06:25:12;;;;;;;;;;;;;;;;;;2218009;63;1889;-19
2023/08/25 06:27:42;;;;;;;;;;;;;;;;;;2215911;66;2006;-18
2023/08/25 06:30:13;;;;;;;;;;;;;;;;;;2218812;58;3218;-19
2023/08/25 06:32:43;;;;;;;;;;;;;;;;;;2219388;58;2224;-18
2023/08/25 06:35:14;;;;;;;;;;;;;;;;;;2219159;66;1809;-20
2023/08/25 06:37:44;;;;;;;;;;;;;;;;;;2215324;66;2155;-17
2023/08/25 06:40:14;;;;;;;;;;;;;;;;;;2219022;59;2054;-17
2023/08/25 06:42:44;;;;;;;;;;;;;;;;;;2219048;66;1785;-17
2023/08/25 06:45:15;;;;;;;;;;;;;;;;;;2219034;58;1769;-18
2023/08/25 06:47:46;;;;;;;;;;;;;;;;;;2214789;58;1974;-17
2023/08/25 06:50:16;;;;;;;;;;;;;;;;;;2219197;58;2093;-18
2023/08/25 06:52:46;;;;;;;;;;;;;;;;;;2217165;58;2089;-17
2023/08/25 06:55:20;;;;;;;;;;;;;;;;;;2214991;58;2256;-17
2023/08/25 06:57:50;;;;;;;;;;;;;;;;;;2219103;66;1811;-17
2023/08/25 07:00:21;;;;;;;;;;;;;;;;;;2214719;58;2952;-18
2023/08/25 07:02:51;;;;;;;;;;;;;;;;;;2216940;66;1835;-18
2023/08/25 07:05:23;;;;;;;;;;;;;;;;;;2219023;66;1847;-18
2023/08/25 07:07:54;;;;;;;;;;;;;;;;;;2215327;66;2622;-17
2023/08/25 07:10:24;;;;;;;;;;;;;;;;;;2215423;66;1773;-19
2023/08/25 07:12:55;;;;;;;;;;;;;;;;;;2218974;58;2524;-18
2023/08/25 07:15:25;;;;;;;;;;;;;;;;;;2218654;66;2185;-18
2023/08/25 07:17:55;;;;;;;;;;;;;;;;;;2215341;58;2157;-18
2023/08/25 07:20:25;;;;;;;;;;;;;;;;;;2215115;59;3202;-18
2023/08/25 07:22:56;;;;;;;;;;;;;;;;;;2218567;66;2590;-18
2023/08/25 07:25:26;;;;;;;;;;;;;;;;;;2219167;66;2000;-18
2023/08/25 07:27:56;;;;;;;;;;;;;;;;;;2219288;58;1941;-18
2023/08/25 07:30:26;;;;;;;;;;;;;;;;;;2218793;58;1649;-18
2023/08/25 07:32:57;;;;;;;;;;;;;;;;;;2218966;58;1767;-17
2023/08/25 07:35:27;;;;;;;;;;;;;;;;;;2215323;59;1589;-16
2023/08/25 07:37:57;;;;;;;;;;;;;;;;;;2214979;66;1771;-17
2023/08/25 07:40:27;;;;;;;;;;;;;;;;;;2219334;58;2478;-18
2023/08/25 07:42:59;;;;;;;;;;;;;;;;;;2215025;66;2371;-19
2023/08/25 07:45:30;;;;;;;;;;;;;;;;;;2215541;58;2325;-17
2023/08/25 07:48:01;;;;;;;;;;;;;;;;;;2218457;66;2003;-21
2023/08/25 07:50:34;;;;;;;;;;;;;;;;;;2219295;58;2425;-21
2023/08/25 07:53:04;;;;;;;;;;;;;;;;;;2218908;58;1873;-19
2023/08/25 07:55:39;;;;;;;;;;;;;;;;;;2216312;58;1487;-21
2023/08/25 07:58:09;;;;;;;;;;;;;;;;;;2214974;66;2394;-23
2023/08/25 08:00:40;;;;;;;;;;;;;;;;;;2217162;59;2990;-21
2023/08/25 08:03:10;;;;;;;;;;;;;;;;;;2214686;66;1796;-20
2023/08/25 08:05:40;;;;;;;;;;;;;;;;;;2218824;66;2629;-22
2023/08/25 08:08:11;;;;;;;;;;;;;;;;;;2215467;66;1933;-20
2023/08/25 08:10:41;;;;;;;;;;;;;;;;;;2219416;66;2338;-21
2023/08/25 08:13:12;;;;;;;;;;;;;;;;;;2216023;58;3424;-20
2023/08/25 08:15:42;;;;;;;;;;;;;;;;;;2215849;66;2388;-22
2023/08/25 08:18:12;;;;;;;;;;;;;;;;;;2218412;58;2888;-18
2023/08/25 08:20:43;;;;;;;;;;;;;;;;;;2219181;59;3102;-19
2023/08/25 08:23:13;;;;;;;;;;;;;;;;;;2217757;59;2733;-18
2023/08/25 08:25:44;;;;;;;;;;;;;;;;;;2218708;66;1700;-19
2023/08/25 08:28:14;;;;;;;;;;;;;;;;;;2218388;58;1989;-18
2023/08/25 08:30:44;;;;;;;;;;;;;;;;;;2218729;58;1728;-21
2023/08/25 08:33:15;;;;;;;;;;;;;;;;;;2215395;58;1872;-20
2023/08/25 08:35:45;;;;;;;;;;;;;;;;;;2218925;59;1992;-19
2023/08/25 08:38:15;;;;;;;;;;;;;;;;;;2217812;59;1722;-20
2023/08/25 08:40:46;;;;;;;;;;;;;;;;;;2218631;66;1980;-20
2023/08/25 08:43:17;;;;;;;;;;;;;;;;;;2217639;66;1726;-18
2023/08/25 08:45:51;;;;;;;;;;;;;;;;;;2218676;58;1417;-18
2023/08/25 08:48:22;;;;;;;;;;;;;;;;;;2218077;66;1941;-18
2023/08/25 08:50:53;;;;;;;;;;;;;;;;;;2215362;58;2024;-18
2023/08/25 08:53:24;;;;;;;;;;;;;;;;;;2217953;58;1618;-18
2023/08/25 08:55:55;;;;;;;;;;;;;;;;;;2218883;66;1617;-18
2023/08/25 08:58:26;;;;;;;;;;;;;;;;;;2215494;66;1348;-18
2023/08/25 09:00:56;;;;;;;;;;;;;;;;;;2218277;58;1911;-17
2023/08/25 09:03:31;;;;;;;;;;;;;;;;;;2215752;66;1863;-17
2023/08/25 09:06:03;;;;;;;;;;;;;;;;;;2214218;66;2439;-18
2023/08/25 09:08:35;;;;;;;;;;;;;;;;;;2219009;66;2001;-18
2023/08/25 09:11:06;;;;;;;;;;;;;;;;;;2219047;66;1327;-18
2023/08/25 09:13:36;;;;;;;;;;;;;;;;;;2215419;58;1859;-18
2023/08/25 09:16:11;;;;;;;;;;;;;;;;;;2218670;66;1517;-17
2023/08/25 09:18:41;;;;;;;;;;;;;;;;;;2219166;58;1292;-18
2023/08/25 09:21:16;;;;;;;;;;;;;;;;;;2217390;59;2279;-18
2023/08/25 09:23:54;;;;;;;;;;;;;;;;;;2217766;66;2621;-18
2023/08/25 09:26:25;;;;;;;;;;;;;;;;;;2218287;58;1969;-19
2023/08/25 09:28:57;;;;;;;;;;;;;;;;;;2212521;66;1837;-20
2023/08/25 09:31:28;;;;;;;;;;;;;;;;;;2218839;58;1848;-20
2023/08/25 09:33:59;;;;;;;;;;;;;;;;;;2219004;58;2834;-20
2023/08/25 09:36:30;;;;;;;;;;;;;;;;;;2218937;66;3279;-20
2023/08/25 09:39:01;;;;;;;;;;;;;;;;;;2214503;59;2575;-19
2023/08/25 09:41:31;;;;;;;;;;;;;;;;;;2214790;58;2177;-19
2023/08/25 09:44:02;;;;;;;;;;;;;;;;;;2215501;66;1783;-20
2023/08/25 09:46:32;;;;;;;;;;;;;;;;;;2219450;58;2250;-19
2023/08/25 09:49:07;;;;;;;;;;;;;;;;;;2218658;58;3228;-20
2023/08/25 09:51:41;;;;;;;;;;;;;;;;;;2219848;58;2238;-19
2023/08/25 09:54:15;;;;;;;;;;;;;;;;;;2216633;58;3098;-20
2023/08/25 09:56:46;;;;;;;;;;;;;;;;;;2219278;58;1947;-19
2023/08/25 09:59:16;;;;;;;;;;;;;;;;;;2218905;58;1779;-18
2023/08/25 10:01:47;;;;;;;;;;;;;;;;;;2219798;58;1965;-20
2023/08/25 10:04:17;;;;;;;;;;;;;;;;;;2218264;66;1873;-19
2023/08/25 10:06:47;;;;;;;;;;;;;;;;;;2216498;66;1929;-20
2023/08/25 10:09:18;;;;;;;;;;;;;;;;;;2218793;66;1855;-19
2023/08/25 10:11:49;;;;;;;;;;;;;;;;;;2218957;58;1493;-19
2023/08/25 10:14:23;;;;;;;;;;;;;;;;;;2215926;66;2579;-20
2023/08/25 10:16:54;;;;;;;;;;;;;;;;;;2213074;58;2492;-19
2023/08/25 10:19:26;;;;;;;;;;;;;;;;;;2218526;58;2307;-20
2023/08/25 10:21:57;;;;;;;;;;;;;;;;;;2219141;66;2945;-19
2023/08/25 10:24:29;;;;;;;;;;;;;;;;;;2214920;66;3196;-20
2023/08/25 10:27:00;;;;;;;;;;;;;;;;;;2218748;58;1987;-19
2023/08/25 10:29:30;;;;;;;;;;;;;;;;;;2218477;63;1851;-19
2023/08/25 10:32:02;;;;;;;;;;;;;;;;;;2218877;58;1869;-19
2023/08/25 10:34:32;;;;;;;;;;;;;;;;;;2218815;66;2756;-19
2023/08/25 10:37:10;;;;;;;;;;;;;;;;;;2218654;66;3023;-18
2023/08/25 10:39:50;;;;;;;;;;;;;;;;;;2219379;66;1878;-19
2023/08/25 10:42:27;;;;;;;;;;;;;;;;;;2218110;66;2188;-18
2023/08/25 10:45:04;;;;;;;;;;;;;;;;;;2219443;58;2818;-18
2023/08/25 10:47:41;;;;;;;;;;;;;;;;;;2217992;59;1920;-20
2023/08/25 10:50:13;;;;;;;;;;;;;;;;;;2219117;58;2640;-19
2023/08/25 10:52:44;;;;;;;;;;;;;;;;;;2215796;58;2018;-18
2023/08/25 10:55:22;;;;;;;;;;;;;;;;;;2218711;59;1980;-18
2023/08/25 10:57:53;;;;;;;;;;;;;;;;;;2218822;66;1736;-17
2023/08/25 11:00:28;;;;;;;;;;;;;;;;;;2218814;58;2060;-18
2023/08/25 11:02:59;;;;;;;;;;;;;;;;;;2219217;66;1879;-17
2023/08/25 11:05:31;;;;;;;;;;;;;;;;;;2218797;66;1775;-19
2023/08/25 11:08:05;;;;;;;;;;;;;;;;;;2218719;66;1992;-19
2023/08/25 11:10:35;;;;;;;;;;;;;;;;;;2219303;58;1854;-19
2023/08/25 11:13:12;;;;;;;;;;;;;;;;;;2219282;59;1485;-18
2023/08/25 11:15:42;;;;;;;;;;;;;;;;;;2219383;66;1279;-19
2023/08/25 11:18:12;;;;;;;;;;;;;;;;;;2218829;58;1578;-19
2023/08/25 11:20:45;;;;;;;;;;;;;;;;;;2218838;66;2247;-17
2023/08/25 11:23:15;;;;;;;;;;;;;;;;;;2218053;66;2645;-18
2023/08/25 11:25:46;;;;;;;;;;;;;;;;;;2214718;63;2811;-17
2023/08/25 11:28:16;;;;;;;;;;;;;;;;;;2218371;58;2501;-17
2023/08/25 11:30:46;;;;;;;;;;;;;;;;;;2218893;58;2513;-17
2023/08/25 11:33:17;;;;;;;;;;;;;;;;;;2214902;58;1518;-17
2023/08/25 11:35:47;;;;;;;;;;;;;;;;;;2215344;66;2794;-17
2023/08/25 11:38:17;;;;;;;;;;;;;;;;;;2218317;66;1869;-17
2023/08/25 11:40:48;;;;;;;;;;;;;;;;;;2219330;66;2361;-17
2023/08/25 11:43:18;;;;;;;;;;;;;;;;;;2215327;66;2778;-17
2023/08/25 11:45:49;;;;;;;;;;;;;;;;;;2218205;58;3024;-17
2023/08/25 11:48:19;;;;;;;;;;;;;;;;;;2217941;58;2195;-17
2023/08/25 11:50:50;;;;;;;;;;;;;;;;;;2218716;58;1345;-17
2023/08/25 11:53:23;;;;;;;;;;;;;;;;;;2218663;58;1526;-17
2023/08/25 11:55:57;;;;;;;;;;;;;;;;;;2218648;58;1801;-17
2023/08/25 11:58:31;;;;;;;;;;;;;;;;;;2214447;66;1686;-17
2023/08/25 12:01:05;;;;;;;;;;;;;;;;;;2212112;59;1984;-17
2023/08/25 12:03:36;;;;;;;;;;;;;;;;;;2218685;66;1610;-17
2023/08/25 12:06:07;;;;;;;;;;;;;;;;;;2218833;66;1724;-17
2023/08/25 12:08:39;;;;;;;;;;;;;;;;;;2218825;66;1929;-17
2023/08/25 12:11:10;;;;;;;;;;;;;;;;;;2218099;66;2030;-17
2023/08/25 12:13:41;;;;;;;;;;;;;;;;;;2214963;59;1759;-17
2023/08/25 12:16:13;;;;;;;;;;;;;;;;;;2218493;66;1319;-17
2023/08/25 12:18:45;;;;;;;;;;;;;;;;;;2214711;59;1583;-17
2023/08/25 12:21:16;;;;;;;;;;;;;;;;;;2217614;59;1187;-17
2023/08/25 12:23:46;;;;;;;;;;;;;;;;;;2218375;66;2226;-17
2023/08/25 12:26:17;;;;;;;;;;;;;;;;;;2216947;58;2492;-16
2023/08/25 12:28:48;;;;;;;;;;;;;;;;;;2218218;66;2006;-17
2023/08/25 12:31:18;;;;;;;;;;;;;;;;;;2215520;58;2211;-17
2023/08/25 12:33:48;;;;;;;;;;;;;;;;;;2218023;58;2541;-16
2023/08/25 12:36:18;;;;;;;;;;;;;;;;;;2217943;59;1642;-17
2023/08/25 12:38:49;;;;;;;;;;;;;;;;;;2218972;66;1509;-18
2023/08/25 12:41:19;;;;;;;;;;;;;;;;;;2218195;66;1618;-18
2023/08/25 12:43:49;;;;;;;;;;;;;;;;;;2219121;66;1623;-17
2023/08/25 12:46:22;;;;;;;;;;;;;;;;;;2218611;58;1986;-17
2023/08/25 12:48:52;;;;;;;;;;;;;;;;;;2215344;58;1971;-17
2023/08/25 12:51:22;;;;;;;;;;;;;;;;;;2218545;58;1303;-19
2023/08/25 12:53:54;;;;;;;;;;;;;;;;;;2219016;58;1903;-17
2023/08/25 12:56:24;;;;;;;;;;;;;;;;;;2219404;58;1152;-17
2023/08/25 12:58:54;;;;;;;;;;;;;;;;;;2218868;66;2059;-20
2023/08/25 13:01:25;;;;;;;;;;;;;;;;;;2219222;58;1212;-19
2023/08/25 13:03:55;;;;;;;;;;;;;;;;;;2218930;59;2091;-18
2023/08/25 13:06:25;;;;;;;;;;;;;;;;;;2216552;58;1919;-19
2023/08/25 13:08:55;;;;;;;;;;;;;;;;;;2215663;59;1785;-18
2023/08/25 13:11:26;;;;;;;;;;;;;;;;;;2219016;58;1839;-17
2023/08/25 13:13:56;;;;;;;;;;;;;;;;;;2218980;66;1713;-17
2023/08/25 13:16:26;;;;;;;;;;;;;;;;;;2215270;66;1644;-17
2023/08/25 13:18:56;;;;;;;;;;;;;;;;;;2218787;58;1671;-16
2023/08/25 13:21:27;;;;;;;;;;;;;;;;;;2216796;66;1699;-16
2023/08/25 13:23:57;;;;;;;;;;;;;;;;;;2218332;66;2195;-16
2023/08/25 13:26:27;;;;;;;;;;;;;;;;;;2217470;58;2371;-16
2023/08/25 13:28:57;;;;;;;;;;;;;;;;;;2214123;66;2276;-16
2023/08/25 13:31:30;;;;;;;;;;;;;;;;;;2215255;58;1750;-16
2023/08/25 13:34:01;;;;;;;;;;;;;;;;;;2218404;58;1723;-16
2023/08/25 13:36:31;;;;;;;;;;;;;;;;;;2218806;66;2324;-16
2023/08/25 13:39:01;;;;;;;;;;;;;;;;;;2218241;66;1880;-16
2023/08/25 13:41:31;;;;;;;;;;;;;;;;;;2217874;66;1835;-16
2023/08/25 13:44:05;;;;;;;;;;;;;;;;;;2218597;66;1950;-16
2023/08/25 13:46:35;;;;;;;;;;;;;;;;;;2217980;58;1937;-16
2023/08/25 13:49:05;;;;;;;;;;;;;;;;;;2218487;58;2030;-16
2023/08/25 13:51:36;;;;;;;;;;;;;;;;;;2218091;58;2623;-15
2023/08/25 13:54:07;;;;;;;;;;;;;;;;;;2218322;58;2111;-16
2023/08/25 13:56:37;;;;;;;;;;;;;;;;;;2216133;58;1901;-16
2023/08/25 13:59:07;;;;;;;;;;;;;;;;;;2218352;58;2083;-16
2023/08/25 14:01:40;;;;;;;;;;;;;;;;;;2219001;58;2301;-16
2023/08/25 14:04:11;;;;;;;;;;;;;;;;;;2218251;66;1781;-16
2023/08/25 14:06:41;;;;;;;;;;;;;;;;;;2218782;66;1993;-16
2023/08/25 14:09:11;;;;;;;;;;;;;;;;;;2218723;66;1566;-16
2023/08/25 14:11:41;;;;;;;;;;;;;;;;;;2215271;66;1636;-16
2023/08/25 14:14:11;;;;;;;;;;;;;;;;;;2215867;66;1964;-16
2023/08/25 14:16:42;;;;;;;;;;;;;;;;;;2218232;58;2007;-17
2023/08/25 14:19:18;;;;;;;;;;;;;;;;;;2215424;66;3552;-16
2023/08/25 14:21:49;;;;;;;;;;;;;;;;;;2215720;66;1863;-16
2023/08/25 14:24:20;;;;;;;;;;;;;;;;;;2216446;66;1973;-16
2023/08/25 14:26:51;;;;;;;;;;;;;;;;;;2218769;58;2354;-17
2023/08/25 14:29:21;;;;;;;;;;;;;;;;;;2218452;59;3846;-17
2023/08/25 14:31:52;;;;;;;;;;;;;;;;;;2219021;58;1706;-17
2023/08/25 14:34:24;;;;;;;;;;;;;;;;;;2218605;58;2186;-17
2023/08/25 14:36:54;;;;;;;;;;;;;;;;;;2218771;66;1953;-19
2023/08/25 14:39:25;;;;;;;;;;;;;;;;;;2216521;66;1946;-16
2023/08/25 14:41:55;;;;;;;;;;;;;;;;;;2218984;66;2752;-18
2023/08/25 14:44:25;;;;;;;;;;;;;;;;;;2218827;58;1775;-17
2023/08/25 14:46:55;;;;;;;;;;;;;;;;;;2218708;66;2173;-18
2023/08/25 14:49:29;;;;;;;;;;;;;;;;;;2215064;58;1658;-17
2023/08/25 14:51:59;;;;;;;;;;;;;;;;;;2218958;58;2881;-16
2023/08/25 14:54:30;;;;;;;;;;;;;;;;;;2218733;66;2662;-19
2023/08/25 14:57:03;;;;;;;;;;;;;;;;;;2215657;58;1758;-17
2023/08/25 14:59:33;;;;;;;;;;;;;;;;;;2218227;66;1747;-17
2023/08/25 15:02:03;;;;;;;;;;;;;;;;;;2218402;58;1860;-17
2023/08/25 15:04:33;;;;;;;;;;;;;;;;;;2218426;66;1767;-18
2023/08/25 15:07:04;;;;;;;;;;;;;;;;;;2214774;66;2054;-18
2023/08/25 15:09:34;;;;;;;;;;;;;;;;;;2215303;59;1838;-17
2023/08/25 15:12:04;;;;;;;;;;;;;;;;;;2218294;58;1397;-17
2023/08/25 15:14:35;;;;;;;;;;;;;;;;;;2219422;66;1759;-16
2023/08/25 15:17:05;;;;;;;;;;;;;;;;;;2218282;58;1791;-17
2023/08/25 15:19:35;;;;;;;;;;;;;;;;;;2212116;66;1989;-18
2023/08/25 15:22:06;;;;;;;;;;;;;;;;;;2218059;66;1941;-17
2023/08/25 15:24:36;;;;;;;;;;;;;;;;;;2214876;66;2102;-18
2023/08/25 15:27:06;;;;;;;;;;;;;;;;;;2218201;58;2286;-18
2023/08/25 15:29:36;;;;;;;;;;;;;;;;;;2218293;59;2171;-17
2023/08/25 15:32:07;;;;;;;;;;;;;;;;;;2218908;58;1888;-17
2023/08/25 15:34:37;;;;;;;;;;;;;;;;;;2219019;66;2802;-16
2023/08/25 15:37:07;;;;;;;;;;;;;;;;;;2214291;58;1535;-17
2023/08/25 15:39:37;;;;;;;;;;;;;;;;;;2218846;66;1807;-17
2023/08/25 15:42:08;;;;;;;;;;;;;;;;;;2218586;66;1999;-16
2023/08/25 15:44:38;;;;;;;;;;;;;;;;;;2218993;58;1733;-16
2023/08/25 15:47:08;;;;;;;;;;;;;;;;;;2215175;66;1924;-16
2023/08/25 15:49:38;;;;;;;;;;;;;;;;;;2215474;58;1801;-16
2023/08/25 15:52:08;;;;;;;;;;;;;;;;;;2218692;58;1885;-16
2023/08/25 15:54:39;;;;;;;;;;;;;;;;;;2215585;66;2179;-17
2023/08/25 15:57:09;;;;;;;;;;;;;;;;;;2217892;58;2196;-16
2023/08/25 15:59:39;;;;;;;;;;;;;;;;;;2219562;66;2180;-16
2023/08/25 16:02:09;;;;;;;;;;;;;;;;;;2218188;58;1667;-16
2023/08/25 16:04:40;;;;;;;;;;;;;;;;;;2218105;66;1754;-16
2023/08/25 16:07:13;;;;;;;;;;;;;;;;;;2214486;59;2725;-16
2023/08/25 16:09:43;;;;;;;;;;;;;;;;;;2215384;66;2624;-16
2023/08/25 16:12:13;;;;;;;;;;;;;;;;;;2215308;66;1978;-17
2023/08/25 16:14:44;;;;;;;;;;;;;;;;;;2215138;59;1630;-16
2023/08/25 16:17:14;;;;;;;;;;;;;;;;;;2218228;59;2235;-17
2023/08/25 16:19:44;;;;;;;;;;;;;;;;;;2218213;66;2101;-16
2023/08/25 16:22:14;;;;;;;;;;;;;;;;;;2212456;66;2004;-17
2023/08/25 16:24:45;;;;;;;;;;;;;;;;;;2218036;66;1955;-16
2023/08/25 16:27:15;;;;;;;;;;;;;;;;;;2217987;59;1918;-20
2023/08/25 16:29:46;;;;;;;;;;;;;;;;;;2218077;58;2728;-19
2023/08/25 16:32:17;;;;;;;;;;;;;;;;;;2218952;58;2561;-20
2023/08/25 16:34:47;;;;;;;;;;;;;;;;;;2217978;59;2648;-20
2023/08/25 16:37:17;;;;;;;;;;;;;;;;;;2217711;66;2848;-20
2023/08/25 16:39:48;;;;;;;;;;;;;;;;;;2218453;66;1925;-20
2023/08/25 16:42:18;;;;;;;;;;;;;;;;;;2214987;66;2093;-17
2023/08/25 16:44:48;;;;;;;;;;;;;;;;;;2215803;58;1731;-17
2023/08/25 16:47:18;;;;;;;;;;;;;;;;;;2215059;66;2298;-17
2023/08/25 16:49:49;;;;;;;;;;;;;;;;;;2218321;58;2332;-16
2023/08/25 16:52:19;;;;;;;;;;;;;;;;;;2218628;58;1828;-17
2023/08/25 16:54:49;;;;;;;;;;;;;;;;;;2215482;66;2331;-17
2023/08/25 16:57:19;;;;;;;;;;;;;;;;;;2215549;58;1782;-17
2023/08/25 16:59:52;;;;;;;;;;;;;;;;;;2218815;58;2268;-17
2023/08/25 17:02:23;;;;;;;;;;;;;;;;;;2218231;66;2319;-17
2023/08/25 17:04:53;;;;;;;;;;;;;;;;;;2215094;66;2137;-17
2023/08/25 17:07:23;;;;;;;;;;;;;;;;;;2218027;66;2790;-17
2023/08/25 17:09:54;;;;;;;;;;;;;;;;;;2214985;59;1461;-16
2023/08/25 17:12:25;;;;;;;;;;;;;;;;;;2218733;58;2735;-17
2023/08/25 17:14:55;;;;;;;;;;;;;;;;;;2218890;66;1838;-17
2023/08/25 17:17:25;;;;;;;;;;;;;;;;;;2215690;59;2169;-17
2023/08/25 17:19:55;;;;;;;;;;;;;;;;;;2215966;66;2066;-17
2023/08/25 17:22:29;;;;;;;;;;;;;;;;;;2216321;66;1749;-17
2023/08/25 17:24:59;;;;;;;;;;;;;;;;;;2215197;59;1990;-20
2023/08/25 17:27:29;;;;;;;;;;;;;;;;;;2218248;58;2302;-18
2023/08/25 17:30:00;;;;;;;;;;;;;;;;;;2214553;59;2087;-19